createdAt,value
2023-03-13T00:00:27.014Z,7.46
2023-03-13T00:03:13.097Z,7.44
2023-03-13T00:05:59.345Z,7.44
2023-03-13T00:08:45.889Z,7.48
2023-03-13T00:11:31.771Z,7.52
2023-03-13T00:14:17.796Z,7.53
2023-03-13T00:17:05.456Z,7.52
2023-03-13T00:19:51.795Z,7.55
2023-03-13T00:22:37.627Z,7.58
2023-03-13T00:25:23.826Z,7.54
2023-03-13T00:28:09.916Z,7.57
2023-03-13T00:31:01.426Z,7.57
2023-03-13T00:33:49.501Z,7.64
2023-03-13T00:36:35.867Z,7.67
2023-03-13T00:39:22.223Z,7.70
2023-03-13T00:42:08.303Z,7.77
2023-03-13T00:44:54.249Z,7.78
2023-03-13T00:47:40.687Z,7.88
2023-03-13T00:50:29.796Z,7.92
2023-03-13T00:53:16.542Z,7.98
2023-03-13T00:56:03.638Z,8.01
2023-03-13T00:58:50.130Z,8.03
2023-03-13T01:01:36.625Z,8.07
2023-03-13T01:04:22.696Z,8.08
2023-03-13T01:07:10.882Z,8.07
2023-03-13T01:09:56.975Z,8.05
2023-03-13T01:12:42.758Z,8.04
2023-03-13T01:15:29.162Z,8.06
2023-03-13T01:18:15.548Z,8.09
2023-03-13T01:21:01.370Z,8.06
2023-03-13T01:23:48.587Z,8.07
2023-03-13T01:26:34.659Z,8.08
2023-03-13T01:29:20.589Z,8.05
2023-03-13T01:32:07.713Z,8.08
2023-03-13T01:34:53.804Z,8.10
2023-03-13T01:37:39.849Z,8.11
2023-03-13T01:40:27.273Z,8.09
2023-03-13T01:43:26.059Z,8.10
2023-03-13T01:46:14.577Z,8.05
2023-03-13T01:49:10.439Z,8.02
2023-03-13T01:52:04.354Z,7.98
2023-03-13T01:54:54.224Z,7.97
2023-03-13T01:57:42.832Z,7.97
2023-03-13T02:00:29.610Z,7.94
2023-03-13T02:03:16.693Z,7.91
2023-03-13T02:06:02.951Z,7.87
2023-03-13T02:08:50.746Z,7.89
2023-03-13T02:11:40.690Z,7.85
2023-03-13T02:14:28.574Z,7.81
2023-03-13T02:17:14.899Z,7.82
2023-03-13T02:20:01.528Z,7.79
2023-03-13T02:22:50.907Z,7.72
2023-03-13T02:25:42.343Z,7.73
2023-03-13T02:28:29.560Z,7.76
2023-03-13T02:31:15.871Z,7.76
2023-03-13T02:34:02.319Z,7.75
2023-03-13T02:36:48.684Z,7.74
2023-03-13T02:39:34.738Z,7.69
2023-03-13T02:42:22.565Z,7.72
2023-03-13T02:45:09.227Z,7.71
2023-03-13T02:47:55.115Z,7.69
2023-03-13T02:50:41.205Z,7.69
2023-03-13T02:53:27.896Z,7.62
2023-03-13T02:56:14.063Z,7.61
2023-03-13T02:59:02.320Z,7.64
2023-03-13T03:01:52.913Z,7.64
2023-03-13T03:04:39.190Z,7.66
2023-03-13T03:07:25.129Z,7.65
2023-03-13T03:10:13.021Z,7.69
2023-03-13T03:13:00.638Z,7.70
2023-03-13T03:15:48.028Z,7.68
2023-03-13T03:18:34.728Z,7.70
2023-03-13T03:21:23.809Z,7.68
2023-03-13T03:24:10.905Z,7.65
2023-03-13T03:26:58.406Z,7.63
2023-03-13T03:29:48.548Z,7.61
2023-03-13T03:32:36.914Z,7.61
2023-03-13T03:35:22.851Z,7.61
2023-03-13T03:38:09.259Z,7.51
2023-03-13T03:40:55.590Z,7.46
2023-03-13T03:43:41.596Z,7.46
2023-03-13T03:46:28.833Z,7.48
2023-03-13T03:49:17.437Z,7.51
2023-03-13T03:52:04.762Z,7.50
2023-03-13T03:54:55.951Z,7.50
2023-03-13T03:57:42.293Z,7.51
2023-03-13T04:00:32.929Z,7.46
2023-03-13T04:03:18.828Z,7.44
2023-03-13T04:06:07.665Z,7.40
2023-03-13T04:08:54.169Z,7.40
2023-03-13T04:11:42.734Z,7.40
2023-03-13T04:14:30.354Z,7.40
2023-03-13T04:17:17.648Z,7.40
2023-03-13T04:20:07.237Z,7.39
2023-03-13T04:22:54.739Z,7.36
2023-03-13T04:25:41.492Z,7.34
2023-03-13T04:28:30.863Z,7.34
2023-03-13T04:31:18.251Z,7.34
2023-03-13T04:34:23.420Z,7.33
2023-03-13T04:37:33.963Z,7.30
2023-03-13T04:40:35.628Z,7.33
2023-03-13T04:43:41.817Z,7.31
2023-03-13T04:46:35.804Z,7.33
2023-03-13T04:49:32.775Z,7.30
2023-03-13T04:52:43.322Z,7.28
2023-03-13T04:56:06.258Z,7.33
2023-03-13T04:59:05.057Z,7.36
2023-03-13T05:01:58.504Z,7.41
2023-03-13T05:05:03.573Z,7.41
2023-03-13T05:08:10.878Z,7.44
2023-03-13T05:11:18.004Z,7.44
2023-03-13T05:14:16.404Z,7.46
2023-03-13T05:17:25.651Z,7.48
2023-03-13T05:20:26.640Z,7.49
2023-03-13T05:23:30.342Z,7.50
2023-03-13T05:26:36.394Z,7.52
2023-03-13T05:29:48.514Z,7.53
2023-03-13T05:32:54.852Z,7.54
2023-03-13T05:36:16.435Z,7.54
2023-03-13T05:39:18.987Z,7.57
2023-03-13T05:42:18.209Z,7.61
2023-03-13T05:45:19.915Z,7.66
2023-03-13T05:48:24.632Z,7.69
2023-03-13T05:51:22.182Z,7.77
2023-03-13T05:54:18.640Z,7.80
2023-03-13T05:57:10.710Z,7.79
2023-03-13T06:00:06.040Z,7.84
2023-03-13T06:03:13.794Z,7.89
2023-03-13T06:06:02.550Z,7.92
2023-03-13T06:08:53.998Z,7.95
2023-03-13T06:11:42.845Z,8.00
2023-03-13T06:14:30.465Z,8.02
2023-03-13T06:17:28.360Z,8.05
2023-03-13T06:20:14.726Z,8.07
2023-03-13T06:23:00.406Z,8.12
2023-03-13T06:25:48.105Z,8.13
2023-03-13T06:28:34.322Z,8.17
2023-03-13T06:31:20.309Z,8.23
2023-03-13T06:34:08.239Z,8.31
2023-03-13T06:36:54.011Z,8.32
2023-03-13T06:39:39.762Z,8.37
2023-03-13T06:42:25.736Z,8.39
2023-03-13T06:45:11.776Z,8.47
2023-03-13T06:47:57.942Z,8.47
2023-03-13T06:50:45.550Z,8.56
2023-03-13T06:53:31.642Z,8.61
2023-03-13T06:56:17.800Z,8.65
2023-03-13T06:59:04.269Z,8.67
2023-03-13T07:01:50.122Z,8.70
2023-03-13T07:04:36.748Z,8.75
2023-03-13T07:07:31.791Z,8.78
2023-03-13T07:10:18.284Z,8.86
2023-03-13T07:13:03.983Z,8.96
2023-03-13T07:15:50.099Z,9.05
2023-03-13T07:18:36.193Z,9.22
2023-03-13T07:21:22.349Z,9.31
2023-03-13T07:24:09.937Z,9.39
2023-03-13T07:27:06.876Z,9.51
2023-03-13T07:29:53.839Z,9.61
2023-03-13T07:32:39.817Z,9.73
2023-03-13T07:35:25.607Z,9.83
2023-03-13T07:38:11.469Z,9.92
2023-03-13T07:40:59.225Z,9.97
2023-03-13T07:43:44.880Z,9.98
2023-03-13T07:46:30.655Z,10.06
2023-03-13T07:49:16.591Z,10.11
2023-03-13T07:52:02.420Z,10.20
2023-03-13T07:54:48.323Z,10.29
2023-03-13T07:57:35.410Z,10.37
2023-03-13T08:00:22.431Z,10.39
2023-03-13T08:03:09.921Z,10.47
2023-03-13T08:06:00.037Z,10.53
2023-03-13T08:08:46.003Z,10.56
2023-03-13T08:11:32.256Z,10.59
2023-03-13T08:14:19.949Z,10.66
2023-03-13T08:17:05.895Z,10.68
2023-03-13T08:19:51.909Z,10.72
2023-03-13T08:22:38.161Z,10.73
2023-03-13T08:25:24.184Z,10.79
2023-03-13T08:28:10.923Z,10.86
2023-03-13T08:30:58.298Z,10.88
2023-03-13T08:33:44.905Z,10.92
2023-03-13T08:36:31.586Z,11.01
2023-03-13T08:39:18.654Z,11.07
2023-03-13T08:42:04.678Z,11.14
2023-03-13T08:44:50.640Z,11.14
2023-03-13T08:47:37.781Z,11.20
2023-03-13T08:50:23.618Z,11.25
2023-03-13T08:53:09.832Z,11.27
2023-03-13T08:55:55.828Z,11.32
2023-03-13T08:58:42.103Z,11.36
2023-03-13T09:01:28.822Z,11.35
2023-03-13T09:04:15.834Z,11.40
2023-03-13T09:07:01.565Z,11.41
2023-03-13T09:09:47.324Z,11.42
2023-03-13T09:12:33.123Z,11.52
2023-03-13T09:15:19.042Z,11.55
2023-03-13T09:18:06.496Z,11.61
2023-03-13T09:20:53.855Z,11.66
2023-03-13T09:23:39.976Z,11.72
2023-03-13T09:26:26.508Z,11.78
2023-03-13T09:29:12.217Z,11.80
2023-03-13T09:31:58.559Z,11.85
2023-03-13T09:34:44.381Z,11.89
2023-03-13T09:37:31.715Z,11.88
2023-03-13T09:40:18.481Z,11.86
2023-03-13T09:43:04.574Z,11.89
2023-03-13T09:45:50.475Z,11.95
2023-03-13T09:48:37.279Z,11.98
2023-03-13T09:51:24.772Z,12.01
2023-03-13T09:54:13.764Z,12.02
2023-03-13T09:57:00.172Z,12.06
2023-03-13T09:59:48.557Z,12.09
2023-03-13T10:02:34.984Z,12.16
2023-03-13T10:05:22.606Z,12.17
2023-03-13T10:08:11.021Z,12.19
2023-03-13T10:10:59.018Z,12.24
2023-03-13T10:13:46.974Z,12.26
2023-03-13T10:16:33.503Z,12.29
2023-03-13T10:19:20.386Z,12.30
2023-03-13T10:22:11.111Z,12.32
2023-03-13T10:24:57.682Z,12.39
2023-03-13T10:27:45.683Z,12.47
2023-03-13T10:30:32.324Z,12.54
2023-03-13T10:33:23.661Z,12.71
2023-03-13T10:36:10.896Z,13.08
2023-03-13T10:38:57.208Z,13.52
2023-03-13T10:41:43.203Z,13.94
2023-03-13T10:44:33.791Z,14.29
2023-03-13T10:47:20.238Z,14.85
2023-03-13T10:50:06.308Z,15.02
2023-03-13T10:52:52.569Z,15.25
2023-03-13T10:55:38.591Z,15.49
2023-03-13T10:58:25.683Z,15.54
2023-03-13T11:01:17.985Z,15.42
2023-03-13T11:04:19.542Z,15.42
2023-03-13T11:07:06.139Z,15.38
2023-03-13T11:09:58.472Z,15.40
2023-03-13T11:12:45.150Z,15.32
2023-03-13T11:15:32.019Z,15.28
2023-03-13T11:18:20.994Z,15.39
2023-03-13T11:21:17.777Z,15.65
2023-03-13T11:24:05.520Z,15.82
2023-03-13T11:27:04.129Z,16.01
2023-03-13T11:29:53.286Z,15.92
2023-03-13T11:32:41.913Z,15.98
2023-03-13T11:35:37.167Z,15.82
2023-03-13T11:38:24.876Z,15.97
2023-03-13T11:41:14.391Z,16.44
2023-03-13T11:44:13.855Z,16.40
2023-03-13T11:47:02.789Z,16.70
2023-03-13T11:50:00.871Z,16.85
2023-03-13T11:52:52.236Z,16.78
2023-03-13T11:55:40.587Z,17.12
2023-03-13T11:58:44.642Z,17.14
2023-03-13T12:01:32.675Z,17.24
2023-03-13T12:04:20.018Z,17.16
2023-03-13T12:07:06.883Z,17.05
2023-03-13T12:09:54.828Z,17.02
2023-03-13T12:12:41.666Z,17.10
2023-03-13T12:15:29.265Z,17.06
2023-03-13T12:18:16.266Z,17.05
2023-03-13T12:21:03.173Z,17.00
2023-03-13T12:23:51.070Z,16.97
2023-03-13T12:26:40.439Z,17.06
2023-03-13T12:29:29.172Z,17.08
2023-03-13T12:32:15.956Z,17.31
2023-03-13T12:35:02.502Z,17.49
2023-03-13T12:37:51.425Z,17.48
2023-03-13T12:40:39.365Z,17.44
2023-03-13T12:43:27.999Z,17.76
2023-03-13T12:46:18.900Z,17.91
2023-03-13T12:49:19.854Z,17.94
2023-03-13T12:52:13.243Z,17.76
2023-03-13T12:55:02.665Z,17.76
2023-03-13T12:58:06.618Z,17.77
2023-03-13T13:00:54.066Z,17.55
2023-03-13T13:03:40.239Z,17.66
2023-03-13T13:06:26.352Z,17.79
2023-03-13T13:09:15.973Z,17.65
2023-03-13T13:12:02.647Z,17.60
2023-03-13T13:15:04.810Z,17.49
2023-03-13T13:17:52.920Z,17.40
2023-03-13T13:20:44.312Z,17.23
2023-03-13T13:23:38.978Z,17.23
2023-03-13T13:26:49.413Z,17.02
2023-03-13T13:29:56.839Z,17.03
2023-03-13T13:32:43.811Z,17.03
2023-03-13T13:35:34.790Z,17.09
2023-03-13T13:38:29.993Z,17.09
2023-03-13T13:41:25.545Z,17.06
2023-03-13T13:44:30.365Z,17.01
2023-03-13T13:47:21.053Z,16.90
2023-03-13T13:50:16.110Z,16.80
2023-03-13T13:53:16.770Z,16.79
2023-03-13T13:56:10.197Z,16.78
2023-03-13T13:58:56.651Z,16.81
2023-03-13T14:01:42.781Z,16.78
2023-03-13T14:04:29.630Z,16.77
2023-03-13T14:07:17.100Z,16.84
2023-03-13T14:10:05.778Z,16.77
2023-03-13T14:12:54.080Z,16.68
2023-03-13T14:15:42.676Z,16.69
2023-03-13T14:18:28.899Z,16.70
2023-03-13T14:21:15.042Z,16.62
2023-03-13T14:24:00.980Z,16.65
2023-03-13T14:26:46.909Z,16.54
2023-03-13T14:29:34.559Z,16.53
2023-03-13T14:32:20.207Z,16.44
2023-03-13T14:35:06.822Z,16.42
2023-03-13T14:37:54.365Z,16.46
2023-03-13T14:40:40.347Z,16.50
2023-03-13T14:43:28.696Z,16.44
2023-03-13T14:46:16.716Z,16.44
2023-03-13T14:49:10.058Z,16.44
2023-03-13T14:52:00.203Z,16.46
2023-03-13T14:54:52.948Z,16.45
2023-03-13T14:57:39.202Z,16.32
2023-03-13T15:00:29.543Z,16.23
2023-03-13T15:03:25.464Z,16.21
2023-03-13T15:06:18.771Z,16.19
2023-03-13T15:09:18.433Z,16.17
2023-03-13T15:12:04.829Z,16.18
2023-03-13T15:14:51.447Z,16.11
2023-03-13T15:17:37.594Z,16.09
2023-03-13T15:20:24.786Z,16.06
2023-03-13T15:23:11.422Z,16.07
2023-03-13T15:25:57.902Z,16.05
2023-03-13T15:28:43.650Z,16.03
2023-03-13T15:31:29.684Z,15.99
2023-03-13T15:34:16.002Z,15.99
2023-03-13T15:37:03.439Z,16.02
2023-03-13T15:39:49.389Z,15.97
2023-03-13T15:42:35.438Z,15.97
2023-03-13T15:45:21.962Z,15.92
2023-03-13T15:48:12.227Z,15.88
2023-03-13T15:50:59.307Z,15.87
2023-03-13T15:53:46.949Z,15.80
2023-03-13T15:56:35.860Z,15.74
2023-03-13T15:59:21.800Z,15.71
2023-03-13T16:02:11.585Z,15.62
2023-03-13T16:04:57.951Z,15.57
2023-03-13T16:07:43.852Z,15.49
2023-03-13T16:10:32.480Z,15.47
2023-03-13T16:13:18.533Z,15.38
2023-03-13T16:16:07.049Z,15.30
2023-03-13T16:18:53.376Z,15.27
2023-03-13T16:21:43.027Z,15.20
2023-03-13T16:24:29.083Z,15.16
2023-03-13T16:27:16.860Z,15.13
2023-03-13T16:30:04.216Z,15.10
2023-03-13T16:32:50.820Z,15.09
2023-03-13T16:35:37.328Z,15.08
2023-03-13T16:38:24.027Z,15.04
2023-03-13T16:41:10.189Z,15.01
2023-03-13T16:43:58.086Z,14.96
2023-03-13T16:46:59.191Z,14.89
2023-03-13T16:49:50.367Z,14.81
2023-03-13T16:52:36.060Z,14.83
2023-03-13T16:55:24.639Z,14.77
2023-03-13T16:58:10.988Z,14.76
2023-03-13T17:01:05.347Z,14.71
2023-03-13T17:03:52.483Z,14.70
2023-03-13T17:06:39.119Z,14.63
2023-03-13T17:09:25.422Z,14.63
2023-03-13T17:12:11.389Z,14.55
2023-03-13T17:14:57.297Z,14.50
2023-03-13T17:17:48.695Z,14.43
2023-03-13T17:20:34.737Z,14.42
2023-03-13T17:23:20.912Z,14.37
2023-03-13T17:26:10.553Z,14.32
2023-03-13T17:28:57.210Z,14.25
2023-03-13T17:31:43.395Z,14.17
2023-03-13T17:34:31.318Z,14.06
2023-03-13T17:37:18.049Z,14.02
2023-03-13T17:40:05.379Z,13.93
2023-03-13T17:42:51.288Z,13.85
2023-03-13T17:45:37.503Z,13.77
2023-03-13T17:48:23.592Z,13.72
2023-03-13T17:51:13.827Z,13.65
2023-03-13T17:53:59.886Z,13.59
2023-03-13T17:56:46.278Z,13.55
2023-03-13T17:59:32.301Z,13.51
2023-03-13T18:02:19.244Z,13.42
2023-03-13T18:05:05.590Z,13.35
2023-03-13T18:07:53.197Z,13.25
2023-03-13T18:10:39.232Z,13.20
2023-03-13T18:13:25.198Z,13.05
2023-03-13T18:16:16.778Z,13.01
2023-03-13T18:19:02.749Z,12.95
2023-03-13T18:21:49.838Z,12.89
2023-03-13T18:24:37.319Z,12.82
2023-03-13T18:27:23.665Z,12.73
2023-03-13T18:30:16.762Z,12.71
2023-03-13T18:33:02.987Z,12.69
2023-03-13T18:35:49.177Z,12.67
2023-03-13T18:38:35.541Z,12.62
2023-03-13T18:41:22.800Z,12.61
2023-03-13T18:44:08.743Z,12.60
2023-03-13T18:46:54.625Z,12.55
2023-03-13T18:49:40.801Z,12.55
2023-03-13T18:52:26.980Z,12.49
2023-03-13T18:55:12.991Z,12.43
2023-03-13T18:58:00.110Z,12.36
2023-03-13T19:00:45.889Z,12.32
2023-03-13T19:03:32.066Z,12.29
2023-03-13T19:06:19.458Z,12.28
2023-03-13T19:09:20.980Z,12.23
2023-03-13T19:12:15.444Z,12.20
2023-03-13T19:15:02.790Z,12.16
2023-03-13T19:17:48.796Z,12.13
2023-03-13T19:20:35.007Z,12.06
2023-03-13T19:23:20.804Z,12.01
2023-03-13T19:26:10.821Z,11.97
2023-03-13T19:28:56.821Z,11.97
2023-03-13T19:31:44.510Z,11.95
2023-03-13T19:34:30.607Z,11.91
2023-03-13T19:37:18.786Z,11.84
2023-03-13T19:40:06.943Z,11.75
2023-03-13T19:42:53.083Z,11.72
2023-03-13T19:45:39.313Z,11.67
2023-03-13T19:48:26.726Z,11.63
2023-03-13T19:51:12.909Z,11.62
2023-03-13T19:53:59.271Z,11.55
2023-03-13T19:56:45.732Z,11.51
2023-03-13T19:59:35.207Z,11.45
2023-03-13T20:02:21.309Z,11.42
2023-03-13T20:05:10.281Z,11.35
2023-03-13T20:07:56.258Z,11.33
2023-03-13T20:10:42.476Z,11.26
2023-03-13T20:13:28.572Z,11.25
2023-03-13T20:16:14.799Z,11.26
2023-03-13T20:19:01.008Z,11.27
2023-03-13T20:21:48.153Z,11.24
2023-03-13T20:24:34.347Z,11.22
2023-03-13T20:27:20.281Z,11.18
2023-03-13T20:30:06.940Z,11.20
2023-03-13T20:32:59.814Z,11.17
2023-03-13T20:35:45.935Z,11.13
2023-03-13T20:38:34.806Z,11.13
2023-03-13T20:41:39.153Z,11.11
2023-03-13T20:44:27.989Z,11.12
2023-03-13T20:47:27.532Z,11.11
2023-03-13T20:50:26.443Z,11.13
2023-03-13T20:53:24.416Z,11.10
2023-03-13T20:56:16.752Z,11.00
2023-03-13T20:59:12.058Z,11.02
2023-03-13T21:02:04.659Z,11.02
2023-03-13T21:04:55.782Z,11.01
2023-03-13T21:07:43.873Z,11.03
2023-03-13T21:10:50.994Z,11.01
2023-03-13T21:13:40.332Z,11.01
2023-03-13T21:16:35.893Z,11.00
2023-03-13T21:19:34.105Z,11.02
2023-03-13T21:22:29.665Z,11.01
2023-03-13T21:25:16.304Z,11.03
2023-03-13T21:28:05.255Z,11.05
2023-03-13T21:30:52.460Z,11.09
2023-03-13T21:33:38.820Z,11.15
2023-03-13T21:36:25.023Z,11.20
2023-03-13T21:39:12.047Z,11.21
2023-03-13T21:41:58.067Z,11.19
2023-03-13T21:44:44.617Z,11.22
2023-03-13T21:47:36.569Z,11.22
2023-03-13T21:50:22.773Z,11.25
2023-03-13T21:53:08.678Z,11.22
2023-03-13T21:55:54.959Z,11.18
2023-03-13T21:58:40.688Z,11.18
2023-03-13T22:01:26.549Z,11.18
2023-03-13T22:04:13.818Z,11.15
2023-03-13T22:06:59.573Z,11.08
2023-03-13T22:09:45.489Z,11.05
2023-03-13T22:12:31.444Z,10.99
2023-03-13T22:15:18.083Z,10.90
2023-03-13T22:18:04.641Z,10.87
2023-03-13T22:20:52.233Z,10.84
2023-03-13T22:23:37.910Z,10.76
2023-03-13T22:26:23.895Z,10.76
2023-03-13T22:29:10.506Z,10.71
2023-03-13T22:31:56.358Z,10.71
2023-03-13T22:34:44.957Z,10.67
2023-03-13T22:37:32.418Z,10.66
2023-03-13T22:40:20.100Z,10.64
2023-03-13T22:43:05.898Z,10.59
2023-03-13T22:45:51.790Z,10.56
2023-03-13T22:48:37.614Z,10.49
2023-03-13T22:51:23.750Z,10.45
2023-03-13T22:54:11.627Z,10.43
2023-03-13T22:56:57.836Z,10.39
2023-03-13T22:59:43.541Z,10.40
2023-03-13T23:02:29.508Z,10.39
2023-03-13T23:05:15.682Z,10.40
2023-03-13T23:08:01.901Z,10.43
2023-03-13T23:10:49.257Z,10.41
2023-03-13T23:13:35.785Z,10.38
2023-03-13T23:16:21.629Z,10.43
2023-03-13T23:19:08.253Z,10.42
2023-03-13T23:21:54.447Z,10.37
2023-03-13T23:24:41.098Z,10.35
2023-03-13T23:27:28.497Z,10.31
2023-03-13T23:30:15.201Z,10.33
2023-03-13T23:33:01.212Z,10.33
2023-03-13T23:35:47.113Z,10.28
2023-03-13T23:38:33.098Z,10.31
2023-03-13T23:41:19.125Z,10.33
2023-03-13T23:44:06.593Z,10.37
2023-03-13T23:46:52.817Z,10.41
2023-03-13T23:49:38.887Z,10.42
2023-03-13T23:52:25.256Z,10.44
2023-03-13T23:55:11.437Z,10.43
2023-03-13T23:57:57.617Z,10.42
